ADDS METAR Data INFO
IDs: Format: Raw Decoded Include TAF

Data at: 1940 UTC 17 Feb 2018

KE38 171935Z AUTO 28012G20KT 10SM CLR 23/04 A3022 RMK AO2 T02290038
KE38 171915Z AUTO 28013G22KT 10SM CLR 22/04 A3023 RMK AO2 T02200040
KE38 171855Z AUTO 28015G20KT 10SM CLR 22/04 A3023 RMK AO2 T02190040
KE38 171835Z AUTO 27016G26KT 10SM CLR 22/04 A3023 RMK AO2 T02200040
KE38 171815Z AUTO 27016G24KT 10SM CLR 22/05 A3023 RMK AO2 T02150049
KE38 171755Z AUTO 28010G19KT 10SM CLR 21/05 A3024 RMK AO2 T02100047 10212 20039
KE38 171735Z AUTO 26006KT 10SM CLR 20/05 A3024 RMK AO2 T01980049
KE38 171715Z AUTO 32005G08KT 10SM CLR 19/05 A3025 RMK AO2 T01920048
KE38 171655Z AUTO 29006KT 10SM CLR 18/05 A3025 RMK AO2 T01770050
KE38 171635Z AUTO 22004KT 10SM CLR 17/05 A3025 RMK AO2 T01670051
KE38 171615Z AUTO 26005KT 10SM CLR 16/05 A3026 RMK AO2 T01630054
KE38 171555Z AUTO 27006KT 10SM CLR 16/05 A3025 RMK AO2 T01580051
KE38 171535Z AUTO 25007KT 10SM CLR 15/05 A3025 RMK AO2 T01520049
KE38 171515Z AUTO 24006KT 10SM CLR 15/05 A3024 RMK AO2 T01450046
KE38 171455Z AUTO 24006KT 10SM CLR 14/04 A3023 RMK AO2 T01350042
KE38 171435Z AUTO 25008KT 10SM CLR 13/04 A3023 RMK AO2 T01280039
KE38 171415Z AUTO 22004KT 10SM CLR 10/03 A3022 RMK AO2 T00980027
KE38 171355Z AUTO 22005KT 10SM CLR 07/01 A3021 RMK AO2 T00660009
KE38 171335Z AUTO 19006KT 10SM CLR 04/M02 A3021 RMK AO2 T00441022
KE38 171315Z AUTO 00000KT 10SM CLR 05/M02 A3020 RMK AO2 T00451021
KE38 171255Z AUTO 00000KT 10SM CLR 05/M02 A3020 RMK AO2 T00511023
KE38 171235Z AUTO 00000KT 10SM CLR 05/M02 A3019 RMK AO2 T00451024
KE38 171215Z AUTO 26003KT 10SM SCT080 05/M02 A3019 RMK AO2 T00461023
KE38 171155Z AUTO 22006KT 10SM SCT080 05/M02 A3019 RMK AO2 T00491021 10120 20033
KE38 171135Z AUTO 20003KT 10SM CLR 04/M03 A3019 RMK AO2 T00401026
KE38 171115Z AUTO 21007KT 10SM CLR 04/M03 A3019 RMK AO2 T00411026
KE38 171055Z AUTO 24006KT 10SM CLR 03/M03 A3019 RMK AO2 T00331032
KE38 171035Z AUTO 25005KT 10SM CLR 04/M03 A3019 RMK AO2 T00361032
KE38 171015Z AUTO 26005KT 10SM CLR 04/M03 A3019 RMK AO2 T00351033
KE38 170955Z AUTO 25005KT 10SM CLR 04/M03 A3020 RMK AO2 T00351035
KE38 170935Z AUTO 27005KT 10SM SCT044 04/M03 A3020 RMK AO2 T00431033
KE38 170915Z AUTO 00000KT 10SM SCT044 SCT120 06/M03 A3021 RMK AO2 T00561026
KE38 170855Z AUTO 12003KT 10SM CLR 06/M03 A3022 RMK AO2 T00611028
KE38 170835Z AUTO 09007KT 10SM CLR 06/M03 A3023 RMK AO2 T00641031
KE38 170815Z AUTO 09008KT 10SM CLR 07/M02 A3024 RMK AO2 T00651025
KE38 170755Z AUTO 09008KT 10SM SCT090 SCT110 07/M01 A3023 RMK AO2 T00731011
KE38 170735Z AUTO 02007KT 10SM SCT090 SCT120 09/M01 A3022 RMK AO2 T00871008
KE38 170715Z AUTO 04008KT 10SM BKN090 BKN120 10/00 A3021 RMK AO2 T00991003
KE38 170655Z AUTO 35007KT 10SM BKN090 11/02 A3021 RMK AO2 T01130017
KE38 170635Z AUTO 31008KT 10SM BKN100 BKN110 12/01 A3019 RMK AO2 T01190005
KE38 170615Z AUTO 31008KT 10SM BKN100 12/00 A3019 RMK AO2 T01170000
KE38 170555Z AUTO 26004KT 10SM BKN110 11/00 A3016 RMK AO2 T01060001 10137 20063 401750063
KE38 170535Z AUTO 00000KT 10SM BKN110 09/M02 A3015 RMK AO2 T00941017
KE38 170515Z AUTO 30004KT 10SM SCT100 BKN120 08/M03 A3015 RMK AO2 T00761027
KE38 170455Z AUTO 29006KT 10SM SCT110 07/M03 A3015 RMK AO2 T00711029
KE38 170435Z AUTO 32005KT 10SM CLR 07/M03 A3015 RMK AO2 T00651030
KE38 170415Z AUTO 26004KT 10SM CLR 07/M03 A3015 RMK AO2 T00651030
KE38 170355Z AUTO 26004KT 10SM CLR 06/M03 A3015 RMK AO2 T00641030
KE38 170335Z AUTO 00000KT 10SM CLR 07/M03 A3016 RMK AO2 T00701031
KE38 170315Z AUTO 00000KT 10SM CLR 08/M03 A3017 RMK AO2 T00771030
KE38 170255Z AUTO 00000KT 10SM CLR 09/M03 A3017 RMK AO2 T00881026
KE38 170235Z AUTO 00000KT 10SM CLR 10/M02 A3018 RMK AO2 T01001022
KE38 170215Z AUTO 06003KT 10SM CLR 11/M02 A3019 RMK AO2 T01051020
KE38 170155Z AUTO 00000KT 10SM CLR 10/M02 A3019 RMK AO2 T01041019
KE38 170135Z AUTO 00000KT 10SM CLR 11/M02 A3019 RMK AO2 T01071018
KE38 170115Z AUTO 08004KT 10SM CLR 11/M02 A3019 RMK AO2 T01111017
KE38 170055Z AUTO 06005KT 10SM CLR 12/M01 A3020 RMK AO2 T01211015
KE38 170035Z AUTO 06006KT 10SM CLR 13/M01 A3021 RMK AO2 T01271013
KE38 170015Z AUTO 06008KT 10SM CLR 14/M01 A3020 RMK AO2 T01351012
KE38 162355Z AUTO 05008KT 10SM CLR 14/M01 A3021 RMK AO2 T01361010 10173 20135
KE38 162335Z AUTO 05008KT 10SM CLR 15/M01 A3021 RMK AO2 T01481008
KE38 162315Z AUTO 05010KT 10SM CLR 15/00 A3021 RMK AO2 T01491005
KE38 162255Z AUTO 05011G16KT 10SM SCT110 15/00 A3021 RMK AO2 T01511003
KE38 162235Z AUTO 04009KT 10SM SCT110 16/00 A3021 RMK AO2 T01580000
KE38 162215Z AUTO 06010KT 10SM CLR 16/00 A3021 RMK AO2 T01630000
KE38 162155Z AUTO 05010G14KT 10SM CLR 16/00 A3022 RMK AO2 T01590000
KE38 162135Z AUTO 04010G15KT 010V070 10SM CLR 16/00 A3022 RMK AO2 T01630003
KE38 162115Z AUTO 06009G14KT 10SM CLR 16/01 A3023 RMK AO2 T01610006
KE38 162055Z AUTO 07011G16KT 10SM CLR 16/01 A3024 RMK AO2 T01630009
KE38 162035Z AUTO 06011KT 10SM CLR 17/02 A3025 RMK AO2 T01670015
KE38 162015Z AUTO 05008G15KT 10SM CLR 17/02 A3026 RMK AO2 T01650016
KE38 161955Z AUTO 04010G16KT 10SM CLR 17/02 A3027 RMK AO2 T01700019
KE38 161935Z AUTO 06009KT 030V100 10SM CLR 17/02 A3028 RMK AO2 T01660024
KE38 161915Z AUTO 06009G15KT 10SM CLR 17/03 A3030 RMK AO2 T01670029
KE38 161855Z AUTO 05012G15KT 10SM CLR 17/03 A3031 RMK AO2 T01660029
KE38 161835Z AUTO 06010G14KT 10SM CLR 17/04 A3032 RMK AO2 T01690035
KE38 161815Z AUTO 06010G15KT 10SM CLR 17/04 A3033 RMK AO2 T01680036
KE38 161755Z AUTO 05011G15KT 10SM CLR 17/04 A3034 RMK AO2 T01700042 10175 20085
KE38 161735Z AUTO 04013G18KT 10SM CLR 17/05 A3034 RMK AO2 T01690050
KE38 161715Z AUTO 06010G15KT 10SM SCT030 17/06 A3034 RMK AO2 T01660055
KE38 161655Z AUTO 05009KT 10SM SCT030 17/08 A3034 RMK AO2 T01690075
KE38 161635Z AUTO 05011KT 10SM CLR 17/08 A3034 RMK AO2 T01690076
KE38 161615Z AUTO 04012G17KT 10SM CLR 16/08 A3034 RMK AO2 T01620075
KE38 161555Z AUTO 08006KT 10SM CLR 16/07 A3034 RMK AO2 T01610072
KE38 161535Z AUTO 07007KT 10SM CLR 16/07 A3032 RMK AO2 T01600068
KE38 161515Z AUTO 00000KT 10SM CLR 15/07 A3032 RMK AO2 T01490065
KE38 161455Z AUTO 00000KT 10SM SCT100 SCT120 14/07 A3031 RMK AO2 T01370065
KE38 161435Z AUTO 00000KT 10SM SCT100 SCT120 12/06 A3031 RMK AO2 T01200059
KE38 161415Z AUTO 24005KT 10SM SCT100 SCT120 11/06 A3030 RMK AO2 T01060055
KE38 161355Z AUTO 22004KT 10SM SCT100 10/05 A3030 RMK AO2 T00970050
KE38 161335Z AUTO 21003KT 10SM BKN100 10/05 A3030 RMK AO2 T01000051
KE38 161315Z AUTO 00000KT 10SM OVC100 10/05 A3030 RMK AO2 T00950049
KE38 161255Z AUTO 00000KT 10SM BKN100 09/04 A3028 RMK AO2 T00880042
KE38 161235Z AUTO 00000KT 10SM SCT100 10/05 A3026 RMK AO2 T01030049
KE38 161215Z AUTO 02003KT 10SM SCT100 09/05 A3025 RMK AO2 T00900046
KE38 161155Z AUTO 00000KT 10SM CLR 09/04 A3024 RMK AO2 T00880044 10165 20077
KE38 161135Z AUTO 00000KT 10SM CLR 10/05 A3023 RMK AO2 T00970049
KE38 161115Z AUTO 00000KT 10SM CLR 09/05 A3024 RMK AO2 T00880046
KE38 161055Z AUTO 00000KT 10SM CLR 10/05 A3023 RMK AO2 T00970047
KE38 161035Z AUTO 00000KT 10SM CLR 10/05 A3024 RMK AO2 T01010047
KE38 161015Z AUTO 25003KT 10SM CLR 09/04 A3024 RMK AO2 T00920044
KE38 160955Z AUTO 00000KT 10SM CLR 10/04 A3024 RMK AO2 T00980044
KE38 160935Z AUTO 29003KT 10SM CLR 10/04 A3024 RMK AO2 T00990043
KE38 160915Z AUTO 29004KT 10SM CLR 10/04 A3024 RMK AO2 T01010041
KE38 160855Z AUTO 29005KT 10SM CLR 10/04 A3024 RMK AO2 T01030043
KE38 160835Z AUTO 00000KT 10SM CLR 13/05 A3024 RMK AO2 T01250054
KE38 160815Z AUTO 00000KT 10SM CLR 12/05 A3024 RMK AO2 T01190052
KE38 160755Z AUTO 00000KT 10SM CLR 15/06 A3023 RMK AO2 T01450061